Time;durP1;ratioP1;P1;durP2;ratioP2;P2;SDS_P1;SDS_P2;PMS_P1;PMS_P2;Temp;Humidity;BMP_temperature;BMP_pressure;BME280_temperature;BME280_humidity;BME280_pressure;Samples;Min_cycle;Max_cycle;Signal;HPM_P1;HPM_P2
2022/03/27 00:03:02;;;;;;;;;;;11.80;66.10;;;;;;8398079;28;19979;-72
2022/03/27 00:07:04;;;;;;;;;;;11.80;66.20;;;;;;8408137;28;19989;-73
2022/03/27 00:11:24;;;;;;;;;;;11.80;66.30;;;;;;8405351;28;20379;-72
2022/03/27 00:15:25;;;;;;;;;;;11.90;66.30;;;;;;8406313;28;19933;-72
2022/03/27 00:19:27;;;;;;;;;;;11.90;66.30;;;;;;8413737;28;19928;-73
2022/03/27 00:23:28;;;;;;;;;;;11.90;66.50;;;;;;8415370;28;19924;-72
2022/03/27 00:27:31;;;;;;;;;;;11.90;66.50;;;;;;8410062;28;19978;-72
2022/03/27 00:31:37;;;;;;;;;;;11.90;66.70;;;;;;8407890;28;19924;-73
2022/03/27 00:35:39;;;;;;;;;;;11.90;67.00;;;;;;8405193;28;20406;-72
2022/03/27 00:39:41;;;;;;;;;;;11.90;67.30;;;;;;8403646;28;20534;-73
2022/03/27 00:43:43;;;;;;;;;;;11.90;67.40;;;;;;8412104;28;19924;-72
2022/03/27 00:47:45;;;;;;;;;;;11.80;67.60;;;;;;8409479;28;19924;-72
2022/03/27 00:51:47;;;;;;;;;;;11.80;68.00;;;;;;8403336;28;19933;-72
2022/03/27 00:55:48;;;;;;;;;;;11.70;68.40;;;;;;8414478;28;19924;-72
2022/03/27 00:59:51;;;;;;;;;;;11.60;69.30;;;;;;8412461;28;20402;-73
2022/03/27 01:03:54;;;;;;;;;;;11.50;69.50;;;;;;8393071;28;20374;-72
2022/03/27 01:07:56;;;;;;;;;;;11.40;69.90;;;;;;8407469;28;19934;-72
2022/03/27 01:12:03;;;;;;;;;;;11.40;69.80;;;;;;8411729;28;19985;-73
2022/03/27 01:16:09;;;;;;;;;;;11.50;70.00;;;;;;8417032;28;20402;-72
2022/03/27 01:20:16;;;;;;;;;;;11.50;70.00;;;;;;8418138;28;19928;-73
2022/03/27 01:24:18;;;;;;;;;;;11.40;70.90;;;;;;8410396;28;19932;-72
2022/03/27 01:28:19;;;;;;;;;;;11.30;70.80;;;;;;8409357;28;19939;-72
2022/03/27 01:32:21;;;;;;;;;;;11.30;71.80;;;;;;8413194;28;20280;-73
2022/03/27 01:36:27;;;;;;;;;;;11.30;71.70;;;;;;8412612;28;19924;-72
2022/03/27 01:40:28;;;;;;;;;;;11.20;71.50;;;;;;8411339;28;19924;-73
2022/03/27 01:44:30;;;;;;;;;;;11.20;71.50;;;;;;8400336;28;19924;-72
2022/03/27 01:48:32;;;;;;;;;;;11.20;71.50;;;;;;8396536;28;19924;-72
2022/03/27 01:52:33;;;;;;;;;;;11.20;71.70;;;;;;8402213;28;19971;-73
2022/03/27 01:56:38;;;;;;;;;;;11.10;72.60;;;;;;8419743;28;19924;-72
2022/03/27 02:00:42;;;;;;;;;;;11.10;71.60;;;;;;8416997;28;20404;-73
2022/03/27 02:04:43;;;;;;;;;;;11.10;72.40;;;;;;8418782;28;19928;-72
2022/03/27 02:08:46;;;;;;;;;;;11.10;72.00;;;;;;8412434;28;19925;-72
2022/03/27 02:12:48;;;;;;;;;;;11.10;72.00;;;;;;8411914;28;19932;-72
2022/03/27 02:16:49;;;;;;;;;;;11.10;72.50;;;;;;8418594;28;19939;-73
2022/03/27 02:20:51;;;;;;;;;;;11.00;72.60;;;;;;8411703;28;19932;-73
2022/03/27 02:24:53;;;;;;;;;;;10.80;73.10;;;;;;8415036;28;19931;-72
2022/03/27 02:28:54;;;;;;;;;;;10.70;73.30;;;;;;8390514;28;20280;-73
2022/03/27 02:32:56;;;;;;;;;;;10.60;73.80;;;;;;8412992;28;20303;-72
2022/03/27 02:36:58;;;;;;;;;;;10.50;73.90;;;;;;8414214;28;19935;-72
2022/03/27 02:40:59;;;;;;;;;;;10.40;74.50;;;;;;8420062;28;19924;-73
2022/03/27 02:45:01;;;;;;;;;;;10.30;74.90;;;;;;8412719;28;19930;-72
2022/03/27 02:49:03;;;;;;;;;;;10.20;75.20;;;;;;8398422;28;19935;-72
2022/03/27 02:53:04;;;;;;;;;;;10.10;75.70;;;;;;8408841;28;19931;-73
2022/03/27 02:57:06;;;;;;;;;;;10.00;76.10;;;;;;8409732;28;19924;-72
2022/03/27 03:01:08;;;;;;;;;;;9.90;77.10;;;;;;8415635;28;19936;-72
2022/03/27 03:05:10;;;;;;;;;;;9.90;77.30;;;;;;8412305;28;19924;-73
2022/03/27 03:09:11;;;;;;;;;;;9.90;77.30;;;;;;8412000;28;19939;-72
2022/03/27 03:13:13;;;;;;;;;;;9.90;77.30;;;;;;8409550;28;19924;-72
2022/03/27 03:17:15;;;;;;;;;;;9.80;77.10;;;;;;8415449;28;19931;-73
2022/03/27 03:21:16;;;;;;;;;;;9.90;77.20;;;;;;8403496;28;19928;-72
2022/03/27 03:25:18;;;;;;;;;;;9.90;77.40;;;;;;8416937;28;19928;-72
2022/03/27 03:29:21;;;;;;;;;;;9.90;77.30;;;;;;8399122;28;19924;-73
2022/03/27 03:33:22;;;;;;;;;;;10.00;76.20;;;;;;8416164;28;20000;-72
2022/03/27 03:37:24;;;;;;;;;;;10.00;76.20;;;;;;8414256;28;19924;-72
2022/03/27 03:41:26;;;;;;;;;;;10.00;76.20;;;;;;8416709;28;19924;-73
2022/03/27 03:45:48;;;;;;;;;;;10.10;76.20;;;;;;8393335;28;19967;-72
2022/03/27 03:49:50;;;;;;;;;;;10.10;76.10;;;;;;8416247;28;19924;-72
2022/03/27 03:53:51;;;;;;;;;;;10.10;76.20;;;;;;8413273;28;19947;-72
2022/03/27 03:57:53;;;;;;;;;;;10.00;76.30;;;;;;8409627;28;19928;-73
2022/03/27 04:01:56;;;;;;;;;;;10.00;76.60;;;;;;8419373;28;19931;-73
2022/03/27 04:05:58;;;;;;;;;;;9.90;78.10;;;;;;8393857;28;19931;-72
2022/03/27 04:10:00;;;;;;;;;;;9.80;78.80;;;;;;8401022;28;19943;-73
2022/03/27 04:14:02;;;;;;;;;;;9.70;79.00;;;;;;8421462;28;19931;-72
2022/03/27 04:18:03;;;;;;;;;;;9.60;78.90;;;;;;8406624;28;19924;-73
2022/03/27 04:22:05;;;;;;;;;;;9.60;79.20;;;;;;8418111;28;20423;-73
2022/03/27 04:26:07;;;;;;;;;;;9.50;79.70;;;;;;8418956;28;20287;-73
2022/03/27 04:30:09;;;;;;;;;;;9.40;80.60;;;;;;8421568;28;19932;-72
2022/03/27 04:34:11;;;;;;;;;;;9.40;80.40;;;;;;8412632;28;20271;-73
2022/03/27 04:38:13;;;;;;;;;;;9.40;80.80;;;;;;8417923;28;19935;-73
2022/03/27 04:42:15;;;;;;;;;;;9.30;80.50;;;;;;8396141;28;19925;-73
2022/03/27 04:46:17;;;;;;;;;;;9.40;80.60;;;;;;8411691;28;19925;-73
2022/03/27 04:50:19;;;;;;;;;;;9.40;80.50;;;;;;8414051;28;20008;-73
2022/03/27 04:54:20;;;;;;;;;;;9.40;80.40;;;;;;8405112;28;19924;-74
2022/03/27 04:58:22;;;;;;;;;;;9.40;80.70;;;;;;8396465;28;20751;-73
2022/03/27 05:02:24;;;;;;;;;;;9.40;81.00;;;;;;8409469;28;19924;-74
2022/03/27 05:06:26;;;;;;;;;;;9.30;81.10;;;;;;8385230;28;19931;-73
2022/03/27 05:10:27;;;;;;;;;;;9.30;81.30;;;;;;8406382;28;20062;-73
2022/03/27 05:14:29;;;;;;;;;;;9.30;81.70;;;;;;8418954;28;20419;-73
2022/03/27 05:18:31;;;;;;;;;;;9.20;81.60;;;;;;8403416;28;19931;-73
2022/03/27 05:22:32;;;;;;;;;;;9.20;82.10;;;;;;8418223;28;19931;-73
2022/03/27 05:26:37;;;;;;;;;;;9.10;82.20;;;;;;8411845;28;19924;-73
2022/03/27 05:30:38;;;;;;;;;;;9.10;82.10;;;;;;8413995;28;20390;-73
2022/03/27 05:34:40;;;;;;;;;;;9.10;82.50;;;;;;8395187;28;19939;-73
2022/03/27 05:38:42;;;;;;;;;;;9.00;82.60;;;;;;8412585;28;19924;-73
2022/03/27 05:42:44;;;;;;;;;;;9.00;82.80;;;;;;8391387;28;20315;-73
2022/03/27 05:46:46;;;;;;;;;;;8.90;82.80;;;;;;8417281;28;19931;-73
2022/03/27 05:50:47;;;;;;;;;;;8.90;82.90;;;;;;8418697;28;19925;-73
2022/03/27 05:54:50;;;;;;;;;;;9.00;82.80;;;;;;8435434;28;19928;-73
2022/03/27 05:58:51;;;;;;;;;;;8.90;82.80;;;;;;8420498;28;19925;-73
2022/03/27 06:02:53;;;;;;;;;;;9.00;82.80;;;;;;8417543;28;19932;-73
2022/03/27 06:06:55;;;;;;;;;;;9.00;82.90;;;;;;8422969;28;20336;-73
2022/03/27 06:10:56;;;;;;;;;;;9.00;83.10;;;;;;8422266;28;20376;-73
2022/03/27 06:14:58;;;;;;;;;;;9.00;83.00;;;;;;8423512;28;19924;-73
2022/03/27 06:19:00;;;;;;;;;;;9.00;83.10;;;;;;8426115;28;19966;-73
2022/03/27 06:23:03;;;;;;;;;;;9.10;83.00;;;;;;8422690;28;20030;-73
2022/03/27 06:27:04;;;;;;;;;;;9.10;83.10;;;;;;8402939;28;19924;-73
2022/03/27 06:31:06;;;;;;;;;;;9.10;83.20;;;;;;8417947;28;20490;-73
2022/03/27 06:35:08;;;;;;;;;;;9.10;82.90;;;;;;8423357;28;20359;-73
2022/03/27 06:39:10;;;;;;;;;;;9.20;82.90;;;;;;8403456;28;19924;-73
2022/03/27 06:43:13;;;;;;;;;;;9.20;83.10;;;;;;8422687;28;19932;-73
2022/03/27 06:47:15;;;;;;;;;;;9.30;83.00;;;;;;8421330;28;19938;-73
2022/03/27 06:51:17;;;;;;;;;;;9.30;83.00;;;;;;8398923;28;19924;-73
2022/03/27 06:55:20;;;;;;;;;;;9.40;83.00;;;;;;8420086;28;19927;-73
2022/03/27 06:59:21;;;;;;;;;;;9.40;83.00;;;;;;8421417;28;19959;-73
2022/03/27 07:03:23;;;;;;;;;;;9.50;82.90;;;;;;8404164;28;19924;-76
2022/03/27 07:07:25;;;;;;;;;;;9.60;83.50;;;;;;8429257;28;19924;-73
2022/03/27 07:11:26;;;;;;;;;;;9.60;83.50;;;;;;8403643;28;19924;-73
2022/03/27 07:15:28;;;;;;;;;;;9.60;83.50;;;;;;8418979;28;19924;-73
2022/03/27 07:19:30;;;;;;;;;;;9.80;83.20;;;;;;8416953;28;19932;-73
2022/03/27 07:23:32;;;;;;;;;;;9.90;83.10;;;;;;8402441;28;20034;-73
2022/03/27 07:27:34;;;;;;;;;;;10.00;82.10;;;;;;8395509;28;19977;-73
2022/03/27 07:31:36;;;;;;;;;;;10.10;81.90;;;;;;8420756;28;19924;-73
2022/03/27 07:35:38;;;;;;;;;;;10.20;81.90;;;;;;8416697;28;19938;-73
2022/03/27 07:39:40;;;;;;;;;;;10.40;81.80;;;;;;8420449;28;19943;-73
2022/03/27 07:43:41;;;;;;;;;;;10.60;81.80;;;;;;8418999;28;19924;-73
2022/03/27 07:47:43;;;;;;;;;;;10.70;81.90;;;;;;8416330;28;19939;-73
2022/03/27 07:51:44;;;;;;;;;;;10.90;81.80;;;;;;8414903;28;19935;-73
2022/03/27 07:55:46;;;;;;;;;;;11.00;82.00;;;;;;8392863;28;20372;-73
2022/03/27 07:59:48;;;;;;;;;;;11.00;81.70;;;;;;8415576;28;19928;-73
2022/03/27 08:03:50;;;;;;;;;;;11.10;81.40;;;;;;8416994;28;19928;-73
2022/03/27 08:07:52;;;;;;;;;;;11.20;81.40;;;;;;8419643;28;19967;-73
2022/03/27 08:11:55;;;;;;;;;;;11.40;81.40;;;;;;8422655;28;19928;-73
2022/03/27 08:15:57;;;;;;;;;;;11.50;81.40;;;;;;8422311;28;19927;-73
2022/03/27 08:19:58;;;;;;;;;;;11.50;81.10;;;;;;8418889;28;19925;-73
2022/03/27 08:24:00;;;;;;;;;;;11.70;81.20;;;;;;8419848;28;19928;-73
2022/03/27 08:28:02;;;;;;;;;;;11.80;80.90;;;;;;8392404;28;19924;-73
2022/03/27 08:32:05;;;;;;;;;;;11.90;80.80;;;;;;8419274;28;19931;-73
2022/03/27 08:36:06;;;;;;;;;;;12.00;80.80;;;;;;8417399;28;19928;-73
2022/03/27 08:40:08;;;;;;;;;;;12.20;80.40;;;;;;8415015;28;20023;-73
2022/03/27 08:44:11;;;;;;;;;;;12.30;80.00;;;;;;8420531;28;19928;-74
2022/03/27 08:48:12;;;;;;;;;;;12.40;80.10;;;;;;8413103;28;19928;-73
2022/03/27 08:52:17;;;;;;;;;;;12.60;79.80;;;;;;8416089;28;20383;-73
2022/03/27 08:56:18;;;;;;;;;;;12.80;79.50;;;;;;8396484;28;20024;-74
2022/03/27 09:00:21;;;;;;;;;;;13.00;79.40;;;;;;8416948;28;20007;-73
2022/03/27 09:04:25;;;;;;;;;;;13.20;79.20;;;;;;8415979;28;19947;-73
2022/03/27 09:08:29;;;;;;;;;;;13.30;78.70;;;;;;8425548;28;20565;-73
2022/03/27 09:12:32;;;;;;;;;;;13.50;78.50;;;;;;8418828;28;19982;-73
2022/03/27 09:16:53;;;;;;;;;;;13.70;78.30;;;;;;8399434;28;19924;-73
2022/03/27 09:20:54;;;;;;;;;;;13.80;77.80;;;;;;8420947;28;19931;-74
2022/03/27 09:24:59;;;;;;;;;;;14.00;77.20;;;;;;8416841;28;19925;-73
2022/03/27 09:29:10;;;;;;;;;;;14.10;77.50;;;;;;8426739;28;19924;-73
2022/03/27 09:33:28;;;;;;;;;;;14.30;77.60;;;;;;8421514;28;20271;-73
2022/03/27 09:37:31;;;;;;;;;;;14.40;77.10;;;;;;8405944;28;19931;-73
2022/03/27 09:41:41;;;;;;;;;;;14.60;77.00;;;;;;8414511;28;19952;-73
2022/03/27 09:45:53;;;;;;;;;;;14.70;76.70;;;;;;8400697;28;19924;-73
2022/03/27 09:49:55;;;;;;;;;;;14.80;76.00;;;;;;8405833;28;19928;-74
2022/03/27 09:54:00;;;;;;;;;;;15.00;76.30;;;;;;8420880;28;19961;-73
2022/03/27 09:58:02;;;;;;;;;;;15.20;76.00;;;;;;8393449;28;19932;-73
2022/03/27 10:02:17;;;;;;;;;;;15.30;75.90;;;;;;8414963;28;19994;-74
2022/03/27 10:06:26;;;;;;;;;;;15.60;75.70;;;;;;8412603;28;19928;-74
2022/03/27 10:10:28;;;;;;;;;;;15.90;75.60;;;;;;8397576;28;19935;-73
2022/03/27 10:14:30;;;;;;;;;;;16.30;75.80;;;;;;8410647;28;20295;-74
2022/03/27 10:18:32;;;;;;;;;;;16.70;76.50;;;;;;8429913;28;19924;-74
2022/03/27 10:22:37;;;;;;;;;;;17.20;79.30;;;;;;8418886;28;19951;-74
2022/03/27 10:26:40;;;;;;;;;;;17.70;83.30;;;;;;8415472;28;19943;-73
2022/03/27 10:30:42;;;;;;;;;;;18.10;89.10;;;;;;8412586;28;19932;-74
2022/03/27 10:35:09;;;;;;;;;;;18.60;91.80;;;;;;8412652;28;19969;-74
2022/03/27 10:39:10;;;;;;;;;;;18.90;93.40;;;;;;8367169;28;19928;-73
2022/03/27 10:43:18;;;;;;;;;;;19.20;93.50;;;;;;8411021;28;19924;-74
2022/03/27 10:47:21;;;;;;;;;;;19.50;96.50;;;;;;8402464;28;19924;-74
2022/03/27 10:51:36;;;;;;;;;;;19.80;97.30;;;;;;8382298;28;19924;-73
2022/03/27 10:55:47;;;;;;;;;;;20.00;96.40;;;;;;8403573;28;19929;-74
2022/03/27 10:59:49;;;;;;;5.85;3.10;;;19.80;93.40;;;;;;8403560;28;19935;-73
2022/03/27 11:04:11;;;;;;;;;;;19.70;89.00;;;;;;8404720;28;20060;-73
2022/03/27 11:08:19;;;;;;;;;;;19.70;84.40;;;;;;8384671;28;20469;-73
2022/03/27 11:12:31;;;;;;;;;;;20.10;87.20;;;;;;8415020;28;19963;-74
2022/03/27 11:16:36;;;;;;;;;;;20.40;89.40;;;;;;8407296;28;19924;-73
2022/03/27 11:20:44;;;;;;;;;;;20.70;90.60;;;;;;8414450;28;19991;-74
2022/03/27 11:24:46;;;;;;;;;;;21.20;92.30;;;;;;8409337;28;19921;-73
2022/03/27 11:28:49;;;;;;;;;;;21.60;91.30;;;;;;8416632;28;19927;-73
2022/03/27 11:33:09;;;;;;;;;;;21.80;89.80;;;;;;8411236;28;19931;-74
2022/03/27 11:37:12;;;;;;;;;;;21.90;86.70;;;;;;8403216;28;19928;-74
2022/03/27 11:41:26;;;;;;;;;;;22.20;83.50;;;;;;8407810;28;19935;-74
2022/03/27 11:45:35;;;;;;;;;;;22.50;81.80;;;;;;8413648;28;19931;-73
2022/03/27 11:49:39;;;;;;;;;;;22.80;82.80;;;;;;8412989;28;19941;-74
2022/03/27 11:53:40;;;;;;;;;;;23.10;82.80;;;;;;8395205;28;19928;-73
2022/03/27 11:57:43;;;;;;;;;;;23.40;83.50;;;;;;8407779;28;19950;-74
2022/03/27 12:02:03;;;;;;;;;;;23.90;87.60;;;;;;8401970;28;19927;-74
2022/03/27 12:06:07;;;;;;;;;;;24.50;90.60;;;;;;8414967;28;20279;-74
2022/03/27 12:10:08;;;;;;;;;;;25.20;91.30;;;;;;8389459;28;19932;-74
2022/03/27 12:14:11;;;;;;;;;;;25.60;91.00;;;;;;8412942;28;19950;-74
2022/03/27 12:18:13;;;;;;;;;;;25.70;91.30;;;;;;8416383;28;19976;-74
2022/03/27 12:22:16;;;;;;;;;;;25.70;87.60;;;;;;8394300;28;19924;-74
2022/03/27 12:30:39;;;;;;;;;;;26.10;86.20;;;;;;8406028;28;19920;-74
2022/03/27 12:34:42;;;;;;;;;;;26.30;81.20;;;;;;8409666;28;19943;-74
2022/03/27 12:38:45;;;;;;;;;;;26.30;77.30;;;;;;8416352;28;19946;-74
2022/03/27 12:42:48;;;;;;;;;;;25.90;71.60;;;;;;8418924;28;19920;-73
2022/03/27 12:46:50;;;;;;;;;;;25.20;67.70;;;;;;8420208;28;20348;-74
2022/03/27 12:50:56;;;;;;;;;;;24.50;63.40;;;;;;8408217;28;19928;-74
2022/03/27 12:55:00;;;;;;;;;;;24.00;59.70;;;;;;8418877;28;19927;-73
2022/03/27 12:59:18;;;;;;;;;;;23.70;55.80;;;;;;8417375;28;20264;-74
2022/03/27 13:03:22;;;;;;;;;;;23.40;54.00;;;;;;8416638;28;19923;-74
2022/03/27 13:07:43;;;;;;;;;;;23.30;51.80;;;;;;8413005;28;19931;-74
2022/03/27 13:11:45;;;;;;;;;;;23.10;50.50;;;;;;8415219;28;19928;-74
2022/03/27 13:15:50;;;;;;;;;;;22.80;49.00;;;;;;8399214;28;19932;-74
2022/03/27 13:19:52;;;;;;;;;;;22.60;48.10;;;;;;8420278;28;20359;-74
2022/03/27 13:23:54;;;;;;;;;;;22.50;47.80;;;;;;8417716;28;20622;-74
2022/03/27 13:27:55;;;;;;;;;;;22.50;47.60;;;;;;8414750;28;19928;-74
2022/03/27 13:31:58;;;;;;;;;;;22.50;47.40;;;;;;8417455;28;19928;-74
2022/03/27 13:36:00;;;;;;;;;;;22.60;47.20;;;;;;8422231;28;19959;-73
2022/03/27 13:40:02;;;;;;;;;;;23.00;47.80;;;;;;8415578;28;19931;-73
2022/03/27 13:44:03;;;;;;;;;;;23.00;48.30;;;;;;8414648;28;20287;-74
2022/03/27 13:48:06;;;;;;;;;;;22.90;47.40;;;;;;8398818;28;20264;-73
2022/03/27 13:52:08;;;;;;;;;;;22.90;46.40;;;;;;8416570;28;19924;-74
2022/03/27 13:56:10;;;;;;;;;;;22.80;45.30;;;;;;8421628;28;19920;-74
2022/03/27 14:00:12;;;;;;;;;;;22.60;45.30;;;;;;8426191;28;19928;-75
2022/03/27 14:04:15;;;;;;;;;;;22.60;45.10;;;;;;8402243;28;19927;-74
2022/03/27 14:08:17;;;;;;;;;;;22.60;44.60;;;;;;8416731;28;19920;-73
2022/03/27 14:12:18;;;;;;;;;;;22.50;44.80;;;;;;8422120;28;20015;-73
2022/03/27 14:16:20;;;;;;;;;;;23.00;46.30;;;;;;8407234;28;20380;-74
2022/03/27 14:20:22;;;;;;;;;;;24.30;51.20;;;;;;8397058;28;20259;-74
2022/03/27 14:24:23;;;;;;;;;;;25.70;56.10;;;;;;8414120;28;19927;-74
2022/03/27 14:28:25;;;;;;;;;;;26.90;58.30;;;;;;8412529;28;19920;-74
2022/03/27 14:32:27;;;;;;;;;;;27.50;57.20;;;;;;8419720;28;19920;-74
2022/03/27 14:36:29;;;;;;;;;;;28.20;55.00;;;;;;8403522;28;19920;-74
2022/03/27 14:40:32;;;;;;;;;;;28.70;55.40;;;;;;8394132;28;19920;-74
2022/03/27 14:44:33;;;;;;;;;;;28.80;54.50;;;;;;8391654;28;19919;-73
2022/03/27 14:48:36;;;;;;;;;;;28.40;52.80;;;;;;8392620;28;20305;-74
2022/03/27 14:52:38;;;;;;;;;;;28.30;51.70;;;;;;8380536;28;19935;-74
2022/03/27 14:56:40;;;;;;;;;;;28.70;51.90;;;;;;8390579;28;19931;-75
2022/03/27 15:00:42;;;;;;;;;;;29.30;51.60;;;;;;8392587;28;20106;-75
2022/03/27 15:04:44;;;;;;;;;;;29.40;50.10;;;;;;8375871;28;19930;-75
2022/03/27 15:08:46;;;;;;;;;;;29.50;49.10;;;;;;8391068;28;19920;-74
2022/03/27 15:12:52;;;;;;;;;;;29.40;49.70;;;;;;8383299;28;19924;-74
2022/03/27 15:16:53;;;;;;;;;;;29.20;49.20;;;;;;8392605;28;20214;-74
2022/03/27 15:20:55;;;;;;;;;;;29.20;48.90;;;;;;8389963;28;19928;-74
2022/03/27 15:24:57;;;;;;;;;;;29.30;48.70;;;;;;8390128;28;19943;-74
2022/03/27 15:28:59;;;;;;;;;;;29.60;48.30;;;;;;8387476;28;19935;-74
2022/03/27 15:33:00;;;;;;;;;;;30.00;48.20;;;;;;8389957;28;19975;-75
2022/03/27 15:37:02;;;;;;;;;;;29.90;46.40;;;;;;8386833;28;19924;-74
2022/03/27 15:41:04;;;;;;;;;;;29.80;46.40;;;;;;8388821;28;20392;-74
2022/03/27 15:45:06;;;;;;;;;;;30.10;46.10;;;;;;8385881;28;19936;-74
2022/03/27 15:49:08;;;;;;;;;;;30.60;46.20;;;;;;8372458;28;19940;-74
2022/03/27 15:53:10;;;;;;;;;;;30.70;45.40;;;;;;8388948;28;19939;-74
2022/03/27 15:57:12;;;;;;;;;;;30.50;45.10;;;;;;8393828;28;20429;-74
2022/03/27 16:01:17;;;;;;;;;;;30.40;44.50;;;;;;8391377;28;19927;-74
2022/03/27 16:05:18;;;;;;;;;;;30.40;43.80;;;;;;8372016;28;19920;-74
2022/03/27 16:09:21;;;;;;;;;;;30.20;43.50;;;;;;8389112;28;20225;-74
2022/03/27 16:13:24;;;;;;;;;;;30.20;42.80;;;;;;8386536;28;20368;-74
2022/03/27 16:17:26;;;;;;;;;;;30.10;42.30;;;;;;8388667;28;19927;-74
2022/03/27 16:21:28;;;;;;;;;;;30.10;42.20;;;;;;8388619;28;19928;-74
2022/03/27 16:25:29;;;;;;;;;;;30.40;42.20;;;;;;8384532;28;19939;-74
2022/03/27 16:29:31;;;;;;;;;;;30.60;41.50;;;;;;8392861;28;19920;-74
2022/03/27 16:33:37;;;;;;;;;;;30.60;41.40;;;;;;8399452;28;19932;-74
2022/03/27 16:37:39;;;;;;;11.82;3.55;;;30.50;40.40;;;;;;8391915;28;19927;-74
2022/03/27 16:41:41;;;;;;;;;;;30.40;39.80;;;;;;8388013;28;19937;-74
2022/03/27 16:45:43;;;;;;;;;;;30.40;39.20;;;;;;8386597;28;19927;-74
2022/03/27 16:49:44;;;;;;;11.05;2.95;;;30.50;39.00;;;;;;8371676;28;20056;-74
2022/03/27 16:53:48;;;;;;;9.20;3.00;;;30.30;37.90;;;;;;8392597;28;20320;-74
2022/03/27 16:57:51;;;;;;;9.00;2.93;;;30.20;37.40;;;;;;8381972;28;20070;-74
2022/03/27 17:01:53;;;;;;;10.65;2.90;;;29.90;36.70;;;;;;8392931;28;20048;-74
2022/03/27 17:05:55;;;;;;;9.15;2.83;;;29.60;36.30;;;;;;8371429;28;20052;-74
2022/03/27 17:09:57;;;;;;;8.87;3.03;;;29.00;35.90;;;;;;8392486;28;20106;-74
2022/03/27 17:13:59;;;;;;;;;;;28.70;35.40;;;;;;8394000;28;20044;-74
2022/03/27 17:18:01;;;;;;;;;;;28.40;35.20;;;;;;8392593;28;19936;-74
2022/03/27 17:22:03;;;;;;;;;;;28.20;35.10;;;;;;8394826;28;19928;-74
2022/03/27 17:26:04;;;;;;;;;;;27.80;34.50;;;;;;8386344;28;19924;-74
2022/03/27 17:30:07;;;;;;;;;;;27.50;34.30;;;;;;8393720;28;20411;-74
2022/03/27 17:34:09;;;;;;;;;;;27.20;34.00;;;;;;8392177;28;19924;-74
2022/03/27 17:38:10;;;;;;;;;;;26.80;33.90;;;;;;8394864;28;20365;-74
2022/03/27 17:42:12;;;;;;;;;;;26.30;33.90;;;;;;8373828;28;20358;-74
2022/03/27 17:46:14;;;;;;;;;;;25.80;34.20;;;;;;8378749;28;20049;-74
2022/03/27 17:50:15;;;;;;;;;;;25.00;34.20;;;;;;8381898;28;20213;-73
2022/03/27 17:54:17;;;;;;;;;;;24.10;34.10;;;;;;8389953;28;20312;-73
2022/03/27 17:58:19;;;;;;;;;;;23.20;34.10;;;;;;8389270;28;19928;-73
2022/03/27 18:02:21;;;;;;;;;;;22.50;34.50;;;;;;8387145;28;20462;-74
2022/03/27 18:06:23;;;;;;;;;;;21.90;34.80;;;;;;8388830;28;19928;-73
2022/03/27 18:10:25;;;;;;;;;;;21.40;34.80;;;;;;8384340;28;19965;-73
2022/03/27 18:14:26;;;;;;;;;;;21.00;35.10;;;;;;8371396;28;19920;-74
2022/03/27 18:18:28;;;;;;;;;;;20.70;35.20;;;;;;8386654;28;19938;-74
2022/03/27 18:22:29;;;;;;;;;;;20.20;35.50;;;;;;8373295;28;19978;-74
2022/03/27 18:26:31;;;;;;;;;;;19.90;35.80;;;;;;8390130;28;19985;-74
2022/03/27 18:30:33;;;;;;;;;;;19.70;36.10;;;;;;8390023;28;19931;-73
2022/03/27 18:34:34;;;;;;;;;;;19.50;36.20;;;;;;8388113;28;20330;-74
2022/03/27 18:38:36;;;;;;;;;;;19.10;36.40;;;;;;8385708;28;20695;-74
2022/03/27 18:42:38;;;;;;;;;;;18.70;36.70;;;;;;8370299;28;20291;-73
2022/03/27 18:46:40;;;;;;;;;;;18.40;37.30;;;;;;8399955;28;19943;-73
2022/03/27 18:50:42;;;;;;;;;;;18.10;37.60;;;;;;8387638;28;20154;-74
2022/03/27 18:54:44;;;;;;;;;;;18.00;38.00;;;;;;8388773;28;19924;-74
2022/03/27 18:58:47;;;;;;;;;;;17.70;38.20;;;;;;8399600;28;19920;-73
2022/03/27 19:02:49;;;;;;;;;;;17.50;38.60;;;;;;8387258;28;20285;-73
2022/03/27 19:06:51;;;;;;;;;;;17.40;38.80;;;;;;8387880;28;19931;-73
2022/03/27 19:10:53;;;;;;;8.10;2.55;;;17.30;38.90;;;;;;8387483;28;19936;-73
2022/03/27 19:14:54;;;;;;;9.35;2.45;;;17.20;39.00;;;;;;8386428;28;20432;-73
2022/03/27 19:18:57;;;;;;;5.45;1.98;;;17.20;39.10;;;;;;8370753;28;20562;-74
2022/03/27 19:23:12;;;;;;;8.68;2.30;;;17.10;39.20;;;;;;8387335;28;20065;-73
2022/03/27 19:27:14;;;;;;;8.73;2.25;;;17.00;39.40;;;;;;8368393;28;20147;-73
2022/03/27 19:31:17;;;;;;;8.80;2.40;;;16.90;39.40;;;;;;8387990;28;20056;-73
2022/03/27 19:35:19;;;;;;;;;;;16.90;39.50;;;;;;8376544;28;20056;-73
2022/03/27 19:39:21;;;;;;;;;;;16.70;39.50;;;;;;8370170;28;19928;-73
2022/03/27 19:43:23;;;;;;;;;;;16.70;39.60;;;;;;8385568;28;20037;-73
2022/03/27 19:47:26;;;;;;;;;;;16.60;39.60;;;;;;8386390;28;20033;-73
2022/03/27 19:51:28;;;;;;;;;;;16.40;39.60;;;;;;8385946;28;19927;-73
2022/03/27 19:55:30;;;;;;;;;;;16.30;39.90;;;;;;8367550;28;19920;-73
2022/03/27 19:59:31;;;;;;;;;;;16.20;40.00;;;;;;8373631;28;19931;-73
2022/03/27 20:03:33;;;;;;;;;;;16.20;40.30;;;;;;8380756;28;19924;-73
2022/03/27 20:07:36;;;;;;;;;;;16.10;40.40;;;;;;8388155;28;19927;-73
2022/03/27 20:11:37;;;;;;;;;;;16.00;40.20;;;;;;8383624;28;19928;-73
2022/03/27 20:15:39;;;;;;;;;;;15.90;40.00;;;;;;8383872;28;19935;-73
2022/03/27 20:19:41;;;;;;;;;;;15.80;40.10;;;;;;8382269;28;19920;-73
2022/03/27 20:23:42;;;;;;;;;;;15.60;40.30;;;;;;8376268;28;20379;-73
2022/03/27 20:27:44;;;;;;;;;;;15.40;40.80;;;;;;8372325;28;19936;-73
2022/03/27 20:32:07;;;;;;;;;;;15.20;41.10;;;;;;8377318;28;19950;-74
2022/03/27 20:36:09;;;;;;;;;;;15.00;41.40;;;;;;8382757;28;20328;-73
2022/03/27 20:40:11;;;;;;;;;;;14.90;41.80;;;;;;8383343;28;19928;-73
2022/03/27 20:44:13;;;;;;;;;;;14.70;42.00;;;;;;8381112;28;19928;-73
2022/03/27 20:48:14;;;;;;;;;;;14.40;42.40;;;;;;8385964;28;19927;-73
2022/03/27 20:52:16;;;;;;;;;;;14.30;42.90;;;;;;8383102;28;19927;-73
2022/03/27 20:56:18;;;;;;;;;;;14.20;43.90;;;;;;8370238;28;19920;-73
2022/03/27 21:00:21;;;;;;;;;;;14.10;43.50;;;;;;8393057;28;19935;-73
2022/03/27 21:04:23;;;;;;;;;;;14.10;43.70;;;;;;8409542;28;19978;-73
2022/03/27 21:08:25;;;;;;;;;;;14.00;43.80;;;;;;8425392;28;19920;-73
2022/03/27 21:12:27;;;;;;;;;;;13.90;44.00;;;;;;8419271;28;19927;-73
2022/03/27 21:16:29;;;;;;;;;;;13.80;44.10;;;;;;8416077;28;19927;-73
2022/03/27 21:20:30;;;;;;;;;;;13.80;44.20;;;;;;8411667;28;20372;-73
2022/03/27 21:24:32;;;;;;;;;;;13.70;43.90;;;;;;8412884;28;19920;-73
2022/03/27 21:28:34;;;;;;;;;;;13.70;43.90;;;;;;8415240;28;19931;-73
2022/03/27 21:32:35;;;;;;;;;;;13.60;43.70;;;;;;8422026;28;19920;-73
2022/03/27 21:36:37;;;;;;;;;;;13.50;43.70;;;;;;8415904;28;19927;-73
2022/03/27 21:40:39;;;;;;;;;;;13.40;43.60;;;;;;8420936;28;19929;-73
2022/03/27 21:44:41;;;;;;;;;;;13.40;43.60;;;;;;8405707;28;19924;-73
2022/03/27 21:48:43;;;;;;;;;;;13.30;43.60;;;;;;8418093;28;19931;-73
2022/03/27 21:52:44;;;;;;;;;;;13.20;43.60;;;;;;8407887;28;20316;-73
2022/03/27 21:56:48;;;;;;;;;;;13.00;43.70;;;;;;8393127;28;21528;-73
2022/03/27 22:00:50;;;;;;;;;;;12.80;44.20;;;;;;8418531;28;19924;-73
2022/03/27 22:04:51;;;;;;;;;;;12.60;44.70;;;;;;8418406;28;20213;-73
2022/03/27 22:08:53;;;;;;;;;;;12.40;44.90;;;;;;8389838;28;20285;-73
2022/03/27 22:12:55;;;;;;;;;;;12.30;45.20;;;;;;8410022;28;19924;-73
2022/03/27 22:16:56;;;;;;;;;;;12.30;45.40;;;;;;8400312;28;19928;-72
2022/03/27 22:20:58;;;;;;;;;;;12.20;45.20;;;;;;8410568;28;20027;-73
2022/03/27 22:25:00;;;;;;;;;;;12.20;45.40;;;;;;8401442;28;19928;-73
2022/03/27 22:29:02;;;;;;;;;;;12.10;45.40;;;;;;8412407;28;20383;-73
2022/03/27 22:33:06;;;;;;;;;;;12.00;46.10;;;;;;8402291;28;19943;-73
2022/03/27 22:37:07;;;;;;;;;;;11.90;45.70;;;;;;8414609;28;19931;-73
2022/03/27 22:41:09;;;;;;;;;;;11.90;46.20;;;;;;8410181;28;19932;-73
2022/03/27 22:45:11;;;;;;;;;;;11.70;46.40;;;;;;8409523;28;20303;-73
2022/03/27 22:49:12;;;;;;;;;;;11.50;46.60;;;;;;8386259;28;19985;-73
2022/03/27 22:53:14;;;;;;;;;;;11.50;46.90;;;;;;8422794;28;20901;-73
2022/03/27 22:57:16;;;;;;;;;;;11.40;47.00;;;;;;8413539;28;19943;-73
2022/03/27 23:01:18;;;;;;;;;;;11.40;47.00;;;;;;8413930;28;20387;-73
2022/03/27 23:05:19;;;;;;;;;;;11.30;46.90;;;;;;8407627;28;19928;-73
2022/03/27 23:09:21;;;;;;;;;;;11.20;46.90;;;;;;8410255;28;19928;-73
2022/03/27 23:13:23;;;;;;;;;;;11.20;47.20;;;;;;8392425;28;20276;-73
2022/03/27 23:17:24;;;;;;;9.95;2.25;;;11.20;47.00;;;;;;8410787;28;19973;-73
2022/03/27 23:21:26;;;;;;;7.80;2.40;;;11.10;46.80;;;;;;8411297;28;20060;-73
2022/03/27 23:25:28;;;;;;;;;;;11.10;46.90;;;;;;8409358;28;19929;-73
2022/03/27 23:29:30;;;;;;;;;;;11.10;46.80;;;;;;8414250;28;19920;-73
2022/03/27 23:33:32;;;;;;;;;;;11.10;46.80;;;;;;8388384;28;19927;-72